METAR Data
IDs: Format: Raw Decoded Include TAF

Data at: 1041 UTC 26 Sep 2018

KOXV 261035Z AUTO 26006KT 10SM CLR 07/07 A3013 RMK AO2
KOXV 261015Z AUTO 26005KT 10SM CLR 07/07 A3012 RMK AO2
KOXV 260955Z AUTO 26006KT 10SM CLR 07/07 A3012 RMK AO2
KOXV 260935Z AUTO 27006KT 10SM CLR 07/07 A3011 RMK AO2
KOXV 260915Z AUTO 25005KT 10SM CLR 08/08 A3011 RMK AO2
KOXV 260855Z AUTO 26006KT 10SM CLR 07/07 A3011 RMK AO2
KOXV 260835Z AUTO 25005KT 10SM CLR 07/07 A3011 RMK AO2
KOXV 260815Z AUTO 26005KT 10SM CLR 07/07 A3011 RMK AO2
KOXV 260755Z AUTO 25005KT 10SM CLR 08/08 A3011 RMK AO2
KOXV 260735Z AUTO 25005KT 10SM CLR 08/08 A3010 RMK AO2
KOXV 260715Z AUTO 25005KT 10SM CLR 08/08 A3011 RMK AO2
KOXV 260655Z AUTO 23004KT 10SM CLR 08/08 A3010 RMK AO2
KOXV 260635Z AUTO 25004KT 10SM CLR 08/08 A3010 RMK AO2
KOXV 260615Z AUTO 25005KT 10SM CLR 08/08 A3010 RMK AO2
KOXV 260555Z AUTO 27007KT 10SM CLR 08/08 A3010 RMK AO2
KOXV 260535Z AUTO 27006KT 10SM CLR 08/08 A3010 RMK AO2
KOXV 260515Z AUTO 28006KT 10SM CLR 08/08 A3010 RMK AO2
KOXV 260455Z AUTO 28006KT 10SM CLR 08/08 A3010 RMK AO2
KOXV 260435Z AUTO 29006KT 10SM CLR 08/08 A3010 RMK AO2
KOXV 260415Z AUTO 29006KT 10SM CLR 09/09 A3010 RMK AO2
KOXV 260355Z AUTO 29005KT 10SM CLR 09/09 A3010 RMK AO2
KOXV 260335Z AUTO 30006KT 10SM CLR 10/09 A3010 RMK AO2
KOXV 260315Z AUTO 31006KT 10SM CLR 10/09 A3009 RMK AO2
KOXV 260255Z AUTO 32005KT 10SM CLR 11/09 A3008 RMK AO2
KOXV 260235Z AUTO 33007KT 10SM CLR 12/09 A3008 RMK AO2
KOXV 260215Z AUTO 33008KT 10SM CLR 12/10 A3008 RMK AO2
KOXV 260155Z AUTO 34009G15KT 10SM BKN033 13/10 A3007 RMK AO2
KOXV 260135Z AUTO 34010G21KT 10SM OVC032 13/10 A3006 RMK AO2
KOXV 260115Z AUTO 33014G20KT 10SM FEW021 OVC031 14/11 A3005 RMK AO2
KOXV 260055Z AUTO 32010KT 10SM SCT022 SCT028 OVC033 14/12 A3004 RMK AO2
KOXV 260035Z AUTO 33011KT 10SM FEW021 OVC031 14/12 A3003 RMK AO2
KOXV 260015Z AUTO 32010KT 10SM FEW025 BKN032 OVC210 14/12 A3002 RMK AO2
KOXV 252355Z AUTO 32013G20KT 10SM OVC024 14/12 A3001 RMK AO2
KOXV 252335Z AUTO 33012G19KT 10SM SCT016 BKN022 OVC027 14/13 A3000 RMK AO2
KOXV 252315Z AUTO 33014G20KT 10SM OVC014 14/13 A2999 RMK AO2
KOXV 252255Z AUTO 33012G20KT 10SM BKN012 OVC017 14/13 A2998 RMK AO2
KOXV 252235Z AUTO 33012G19KT 10SM BKN010 OVC016 14/13 A2997 RMK AO2
KOXV 252215Z AUTO 31015KT 10SM BKN009 OVC014 14/14 A2997 RMK AO2
KOXV 252155Z AUTO 33013G20KT 6SM BR SCT009 BKN015 BKN021 14/14 A2996 RMK AO2
KOXV 252135Z AUTO 32016G22KT 2SM BR BKN007 BKN014 14/14 A2995 RMK AO2
KOXV 252115Z AUTO 32013G19KT 6SM BR OVC008 15/14 A2994 RMK AO2
KOXV 252055Z AUTO 32015G21KT 10SM OVC008 15/15 A2992 RMK AO2
KOXV 252035Z AUTO 31016G22KT 10SM OVC007 15/15 A2991 RMK AO2
KOXV 252015Z AUTO 31016KT 10SM BKN008 OVC012 16/16 A2990 RMK AO2
KOXV 251955Z AUTO 32016G21KT 10SM OVC012 18/16 A2988 RMK AO2
KOXV 251935Z AUTO 32012KT 10SM OVC012 19/17 A2986 RMK AO2
KOXV 251915Z AUTO 32007KT 10SM BKN011 BKN016 18/17 A2986 RMK AO2
KOXV 251855Z AUTO 35006KT 10SM BKN009 BKN065 18/16 A2985 RMK AO2 P0002
KOXV 251835Z AUTO 33009KT 10SM BKN007 BKN010 17/16 A2986 RMK AO2
KOXV 251815Z AUTO 33012G19KT 10SM BKN007 OVC010 16/16 A2987 RMK AO2
KOXV 251755Z AUTO 31014G20KT 10SM BKN007 OVC050 16/16 A2988 RMK AO2 P0002
KOXV 251735Z AUTO 30012G17KT 5SM -RA BKN006 BKN021 OVC049 16/16 A2988 RMK AO2
KOXV 251715Z AUTO 29020G28KT 8SM SCT015 BKN020 OVC055 22/20 A2986 RMK AO2
KOXV 251655Z AUTO 21012KT 10SM BKN014 OVC020 22/21 A2984 RMK AO2
KOXV 251635Z AUTO 21011KT 10SM BKN013 OVC019 22/21 A2983 RMK AO2
KOXV 251615Z AUTO 20007KT 10SM OVC011 21/21 A2983 RMK AO2
KOXV 251555Z AUTO 18005KT 10SM OVC011 21/21 A2982 RMK AO2 P0001
KOXV 251535Z AUTO 22005KT 8SM BKN008 OVC013 20/20 A2983 RMK AO2
KOXV 251515Z AUTO 21003KT 10SM SCT008 BKN019 OVC042 20/20 A2984 RMK AO2
KOXV 251455Z AUTO 20003KT 10SM BKN015 BKN020 OVC070 20/19 A2983 RMK AO2
KOXV 251435Z AUTO 00000KT 10SM OVC014 19/19 A2983 RMK AO2
KOXV 251415Z AUTO 00000KT 10SM BKN015 BKN036 OVC055 18/18 A2984 RMK AO2
KOXV 251355Z AUTO 15003KT 10SM OVC017 17/17 A2984 RMK AO2
KOXV 251335Z AUTO 00000KT 8SM FEW014 BKN019 OVC035 17/17 A2985 RMK AO2
KOXV 251315Z AUTO 00000KT 7SM SCT016 BKN033 BKN042 16/16 A2985 RMK AO2
KOXV 251255Z AUTO 00000KT 9SM SCT015 BKN021 BKN038 16/16 A2985 RMK AO2
KOXV 251235Z AUTO 00000KT 8SM BKN021 BKN038 15/15 A2986 RMK AO2
KOXV 251215Z AUTO 00000KT 3/4SM BR VV005 15/15 A2985 RMK AO2
KOXV 251155Z AUTO 12004KT 6SM BR CLR 15/15 A2984 RMK AO2
KOXV 251135Z AUTO 10004KT 9SM CLR 15/15 A2985 RMK AO2
KOXV 251115Z AUTO 00000KT 6SM BR CLR 15/15 A2986 RMK AO2
KOXV 251055Z AUTO 18004KT 7SM FEW075 15/15 A2986 RMK AO2
KOXV 251035Z AUTO 16004KT 7SM CLR 16/16 A2986 RMK AO2
KOXV 251015Z AUTO 00000KT 7SM CLR 16/16 A2986 RMK AO2
KOXV 250955Z AUTO 00000KT 9SM CLR 15/15 A2987 RMK AO2
KOXV 250935Z AUTO 28004KT 9SM CLR 16/16 A2986 RMK AO2
KOXV 250915Z AUTO 22003KT 10SM CLR 16/16 A2986 RMK AO2
KOXV 250855Z AUTO 23004KT 10SM FEW160 17/17 A2986 RMK AO2
KOXV 250835Z AUTO 21006KT 10SM FEW160 17/17 A2986 RMK AO2
KOXV 250815Z AUTO 22006KT 10SM CLR 17/17 A2986 RMK AO2
KOXV 250735Z AUTO 19006KT 10SM CLR 17/17 A2986 RMK AO2
KOXV 250715Z AUTO 19005KT 7SM CLR 16/16 A2986 RMK AO2
KOXV 250655Z AUTO 18005KT 10SM CLR 17/17 A2986 RMK AO2
KOXV 250635Z AUTO 15004KT 10SM CLR 17/17 A2987 RMK AO2
KOXV 250615Z AUTO 19004KT 10SM CLR 17/17 A2987 RMK AO2
KOXV 250555Z AUTO 19005KT 10SM CLR 17/17 A2987 RMK AO2
KOXV 250535Z AUTO 21004KT 10SM CLR 17/17 A2987 RMK AO2
KOXV 250515Z AUTO 18004KT 10SM CLR 17/17 A2987 RMK AO2
KOXV 250455Z AUTO 20004KT 10SM CLR 18/18 A2987 RMK AO2
KOXV 250435Z AUTO 21004KT 10SM CLR 18/18 A2988 RMK AO2
KOXV 250415Z AUTO 21004KT 10SM FEW038 FEW045 18/18 A2987 RMK AO2
KOXV 250355Z AUTO 23004KT 10SM FEW028 SCT034 BKN044 18/18 A2988 RMK AO2
KOXV 250335Z AUTO 26003KT 10SM SCT028 SCT034 BKN044 19/18 A2987 RMK AO2
KOXV 250315Z AUTO 23005KT 10SM SCT029 SCT035 BKN044 19/18 A2987 RMK AO2
KOXV 250255Z AUTO 17003KT 10SM BKN030 BKN036 BKN042 19/18 A2985 RMK AO2
KOXV 250235Z AUTO 15005KT 10SM BKN033 BKN041 19/18 A2985 RMK AO2
KOXV 250215Z AUTO 00000KT 10SM CLR 19/18 A2984 RMK AO2
KOXV 250155Z AUTO 14006KT 10SM CLR 20/18 A2983 RMK AO2
KOXV 250135Z AUTO 15005KT 10SM CLR 20/18 A2983 RMK AO2
KOXV 250115Z AUTO 15006KT 10SM CLR 20/18 A2983 RMK AO2
KOXV 250055Z AUTO 15005KT 10SM CLR 21/18 A2982 RMK AO2
KOXV 250035Z AUTO 15004KT 10SM CLR 21/18 A2983 RMK AO2
KOXV 250015Z AUTO 00000KT 10SM CLR 22/18 A2983 RMK AO2
KOXV 242355Z AUTO 16005KT 10SM CLR 23/18 A2983 RMK AO2
KOXV 242335Z AUTO 18005G10KT 10SM CLR 24/17 A2983 RMK AO2
KOXV 242315Z AUTO 18007KT 10SM FEW045 24/17 A2983 RMK AO2
KOXV 242255Z AUTO 16007KT 10SM SCT045 25/17 A2983 RMK AO2